Time;durP1;ratioP1;P1;durP2;ratioP2;P2;SDS_P1;SDS_P2;PMS_P1;PMS_P2;Temp;Humidity;BMP_temperature;BMP_pressure;BME280_temperature;BME280_humidity;BME280_pressure;Samples;Min_cycle;Max_cycle;Signal;HPM_P1;HPM_P2
2022/12/07 03:46:27;;;;;;;7.32;3.10;;;4.10;90.70;;;;;;5414342;23;93733;-81
2022/12/07 03:49:09;;;;;;;7.72;3.08;;;4.00;90.40;;;;;;4781518;29;93278;-82
2022/12/07 03:51:54;;;;;;;7.85;2.92;;;3.90;90.70;;;;;;4778588;29;92112;-83
2022/12/07 03:54:43;;;;;;;8.45;2.85;;;3.80;90.90;;;;;;4791809;29;91340;-86
2022/12/07 03:57:11;;;;;;;9.80;2.92;;;3.80;91.20;;;;;;4791154;29;91339;-86
2022/12/07 03:59:39;;;;;;;6.95;3.47;;;3.90;90.70;;;;;;4788837;29;96926;-83
2022/12/07 04:02:06;;;;;;;7.10;3.10;;;3.90;91.00;;;;;;4788406;29;96629;-86
2022/12/07 04:04:33;;;;;;;7.18;3.10;;;3.90;91.20;;;;;;4781616;29;91226;-84
2022/12/07 04:06:59;;;;;;;8.52;3.08;;;3.90;90.90;;;;;;4784841;29;91810;-85
2022/12/07 04:09:25;;;;;;;10.93;3.58;;;3.90;90.80;;;;;;4788630;29;92460;-85
2022/12/07 04:11:50;;;;;;;8.32;3.47;;;3.90;90.60;;;;;;4781563;29;92365;-84
2022/12/07 04:14:19;;;;;;;7.90;3.30;;;3.90;90.60;;;;;;4781439;29;91744;-84
2022/12/07 04:16:48;;;;;;;9.32;3.90;;;3.90;90.60;;;;;;4797917;29;90672;-82
2022/12/07 04:19:15;;;;;;;7.60;3.30;;;3.80;90.80;;;;;;4783488;29;92758;-82
2022/12/07 04:21:41;;;;;;;8.32;3.42;;;3.90;90.70;;;;;;4788720;29;92390;-83
2022/12/07 04:24:06;;;;;;;9.88;3.40;;;3.90;90.80;;;;;;4789682;29;92364;-84
2022/12/07 04:26:32;;;;;;;9.73;3.72;;;3.90;90.80;;;;;;4784320;29;91888;-84
2022/12/07 04:28:58;;;;;;;8.13;3.22;;;3.90;90.80;;;;;;4788143;29;95931;-82
2022/12/07 04:31:23;;;;;;;10.98;3.90;;;3.90;91.00;;;;;;4784150;29;92372;-81
2022/12/07 04:33:49;;;;;;;8.98;3.60;;;4.00;91.00;;;;;;4783965;29;92013;-82
2022/12/07 04:36:15;;;;;;;11.13;4.70;;;4.00;91.10;;;;;;4786509;29;91459;-83
2022/12/07 04:38:40;;;;;;;8.85;3.95;;;4.10;90.80;;;;;;4792988;29;95620;-84
2022/12/07 04:41:07;;;;;;;8.90;4.32;;;4.10;90.70;;;;;;4792165;29;92378;-85
2022/12/07 04:43:34;;;;;;;9.73;4.18;;;4.10;91.00;;;;;;4793830;29;91175;-84
2022/12/07 04:46:00;;;;;;;10.13;4.28;;;4.20;90.70;;;;;;4776075;29;91394;-83
2022/12/07 04:48:25;;;;;;;10.50;4.53;;;4.20;90.80;;;;;;4771463;29;97256;-87
2022/12/07 04:50:51;;;;;;;12.48;4.28;;;4.30;90.80;;;;;;4787389;29;93344;-86
2022/12/07 04:53:17;;;;;;;10.73;4.45;;;4.30;90.60;;;;;;4792133;29;91335;-86
2022/12/07 04:55:43;;;;;;;11.57;5.20;;;4.30;90.60;;;;;;4774545;29;92089;-87
2022/12/07 04:58:09;;;;;;;10.75;4.50;;;4.20;90.90;;;;;;4774444;29;92145;-86
2022/12/07 05:00:34;;;;;;;12.00;5.25;;;4.20;91.40;;;;;;4772130;29;91636;-86
2022/12/07 05:03:00;;;;;;;9.45;4.45;;;4.10;91.40;;;;;;4778580;29;91918;-86
2022/12/07 05:05:26;;;;;;;11.27;5.03;;;4.10;91.80;;;;;;4788439;29;90724;-84
2022/12/07 05:07:51;;;;;;;12.60;5.60;;;4.10;92.00;;;;;;4798034;29;94231;-84
2022/12/07 05:10:17;;;;;;;11.73;5.28;;;4.10;92.10;;;;;;4781702;29;92488;-84
2022/12/07 05:12:43;;;;;;;11.95;5.78;;;4.00;92.20;;;;;;4794239;29;92183;-84
2022/12/07 05:15:09;;;;;;;15.10;6.15;;;3.90;92.60;;;;;;4800776;29;91223;-84
2022/12/07 05:17:34;;;;;;;14.50;5.28;;;3.80;92.60;;;;;;4776183;29;96109;-85
2022/12/07 05:20:00;;;;;;;16.65;6.80;;;3.80;92.90;;;;;;4785585;29;92462;-86
2022/12/07 05:22:27;;;;;;;14.95;6.60;;;3.80;93.00;;;;;;4788267;29;91303;-83
2022/12/07 05:24:54;;;;;;;15.15;6.35;;;3.70;93.20;;;;;;4791218;29;91778;-82
2022/12/07 05:27:20;;;;;;;14.35;6.65;;;3.60;93.50;;;;;;4783370;29;92846;-84
2022/12/07 05:29:46;;;;;;;13.95;6.28;;;3.60;93.80;;;;;;4801977;29;95908;-84
2022/12/07 05:32:11;;;;;;;16.02;6.88;;;3.50;94.40;;;;;;4792337;29;91500;-80
2022/12/07 05:34:37;;;;;;;16.27;6.80;;;3.50;94.40;;;;;;4790542;29;91328;-82
2022/12/07 05:37:03;;;;;;;15.52;6.95;;;3.60;94.60;;;;;;4790424;29;92950;-82
2022/12/07 05:39:29;;;;;;;14.80;6.43;;;3.50;94.30;;;;;;4791085;29;92593;-84
2022/12/07 05:42:13;;;;;;;16.92;6.32;;;3.50;94.70;;;;;;4792130;29;91172;-83
2022/12/07 05:44:44;;;;;;;17.80;7.15;;;3.50;94.60;;;;;;4791712;29;93270;-82
2022/12/07 05:47:14;;;;;;;14.77;6.32;;;3.50;95.10;;;;;;4786424;29;95773;-82
2022/12/07 05:49:40;;;;;;;14.18;6.53;;;3.60;95.20;;;;;;4789022;29;92387;-82
2022/12/07 05:52:07;;;;;;;15.68;6.63;;;3.60;94.90;;;;;;4784762;29;91803;-82
2022/12/07 05:54:33;;;;;;;20.17;6.90;;;3.60;95.10;;;;;;4783535;29;91013;-82
2022/12/07 05:56:58;;;;;;;16.52;7.20;;;3.60;95.00;;;;;;4788254;29;92707;-85
2022/12/07 05:59:26;;;;;;;17.40;7.40;;;3.60;95.30;;;;;;4791377;29;92587;-81
2022/12/07 06:02:02;;;;;;;16.80;7.22;;;3.60;95.20;;;;;;4786564;29;92530;-81
2022/12/07 06:04:31;;;;;;;17.80;7.75;;;3.60;95.50;;;;;;4786460;29;91304;-84
2022/12/07 06:06:57;;;;;;;18.83;7.47;;;3.70;95.00;;;;;;4790446;29;92773;-83
2022/12/07 06:09:24;;;;;;;19.00;8.10;;;3.60;95.10;;;;;;4782943;29;92441;-81
2022/12/07 06:14:34;;;;;;;18.17;7.32;;;3.70;95.50;;;;;;4791433;29;91475;-82
2022/12/07 06:17:00;;;;;;;16.38;7.30;;;3.70;95.70;;;;;;4783722;29;91830;-82
2022/12/07 06:19:26;;;;;;;19.65;8.05;;;3.70;95.60;;;;;;4786627;29;91839;-82
2022/12/07 06:21:52;;;;;;;23.20;8.68;;;3.70;95.70;;;;;;4790434;29;91309;-81
2022/12/07 06:24:18;;;;;;;22.13;9.00;;;3.70;95.80;;;;;;4788821;29;91363;-82
2022/12/07 06:26:44;;;;;;;19.30;8.02;;;3.80;95.80;;;;;;4782481;29;93047;-82
2022/12/07 06:29:11;;;;;;;20.95;8.20;;;3.90;96.00;;;;;;4788031;29;93340;-84
2022/12/07 06:31:37;;;;;;;21.95;9.95;;;3.90;95.70;;;;;;4776418;29;92006;-82
2022/12/07 06:34:06;;;;;;;22.98;8.55;;;3.90;96.20;;;;;;4786535;29;91763;-82
2022/12/07 06:36:32;;;;;;;21.23;9.13;;;3.90;95.50;;;;;;4783876;29;92825;-85
2022/12/07 06:38:57;;;;;;;21.10;8.15;;;3.80;95.90;;;;;;4790399;29;92476;-83
2022/12/07 06:41:23;;;;;;;20.38;8.02;;;3.80;96.10;;;;;;4780411;29;91732;-82
2022/12/07 06:43:50;;;;;;;20.88;8.98;;;3.70;96.20;;;;;;4783625;29;91202;-82
2022/12/07 06:46:16;;;;;;;19.27;7.88;;;3.70;96.20;;;;;;4789291;29;92546;-82
2022/12/07 06:48:43;;;;;;;21.83;8.20;;;3.70;96.30;;;;;;4802084;29;92505;-82
2022/12/07 06:51:09;;;;;;;18.90;8.57;;;3.60;96.40;;;;;;4803934;29;92749;-82
2022/12/07 06:53:35;;;;;;;22.15;9.38;;;3.60;96.70;;;;;;4808800;29;91451;-83
2022/12/07 06:56:01;;;;;;;20.80;8.95;;;3.60;96.70;;;;;;4800403;29;92491;-89
2022/12/07 06:58:27;;;;;;;20.50;8.82;;;3.60;96.70;;;;;;4815185;29;92497;-82
2022/12/07 07:00:53;;;;;;;21.88;7.90;;;3.70;96.70;;;;;;4808891;29;91955;-82
2022/12/07 07:03:19;;;;;;;20.38;8.80;;;3.70;97.00;;;;;;4809388;29;91331;-84
2022/12/07 07:05:45;;;;;;;21.10;9.07;;;3.70;96.70;;;;;;4807502;29;92664;-83
2022/12/07 07:08:11;;;;;;;24.20;8.07;;;3.70;96.90;;;;;;4806815;29;92416;-82
2022/12/07 07:10:37;;;;;;;18.95;7.60;;;3.70;96.90;;;;;;4804045;29;91348;-81
2022/12/07 07:13:03;;;;;;;19.83;8.02;;;3.70;96.80;;;;;;4805937;29;91348;-82
2022/12/07 07:15:29;;;;;;;20.50;8.68;;;3.60;96.80;;;;;;4802157;29;93208;-82
2022/12/07 07:17:55;;;;;;;18.92;8.35;;;3.60;97.00;;;;;;4802944;29;93908;-83
2022/12/07 07:20:22;;;;;;;16.38;7.70;;;3.60;96.70;;;;;;4800456;29;91915;-84
2022/12/07 07:22:48;;;;;;;17.35;7.97;;;3.70;96.90;;;;;;4799298;29;91538;-83
2022/12/07 07:25:14;;;;;;;17.35;7.25;;;3.70;96.70;;;;;;4799487;29;92826;-88
2022/12/07 07:27:40;;;;;;;21.65;7.47;;;3.60;95.90;;;;;;4809379;29;92386;-89
2022/12/07 07:30:06;;;;;;;18.50;7.57;;;3.50;95.90;;;;;;4815416;29;91165;-87
2022/12/07 07:32:32;;;;;;;18.90;8.10;;;3.40;96.30;;;;;;4815327;29;90679;-87
2022/12/07 07:34:58;;;;;;;17.73;6.80;;;3.40;96.70;;;;;;4796253;29;94932;-86
2022/12/07 07:37:24;;;;;;;19.40;7.75;;;3.30;96.40;;;;;;4810900;29;91824;-87
2022/12/07 07:39:49;;;;;;;19.13;8.68;;;3.30;96.50;;;;;;4793627;29;92199;-86
2022/12/07 07:42:15;;;;;;;15.85;6.85;;;3.20;96.50;;;;;;4811430;29;91860;-86
2022/12/07 07:44:41;;;;;;;17.60;7.32;;;3.30;96.60;;;;;;4808698;29;92744;-86
2022/12/07 07:47:06;;;;;;;18.83;8.15;;;3.30;96.50;;;;;;4786530;29;96034;-87
2022/12/07 07:49:32;;;;;;;17.65;7.65;;;3.30;96.50;;;;;;4827307;29;91260;-87
2022/12/07 07:51:58;;;;;;;17.55;7.43;;;3.30;96.80;;;;;;4782137;29;91483;-86
2022/12/07 07:54:23;;;;;;;20.27;8.05;;;3.30;96.80;;;;;;4793010;29;92959;-86
2022/12/07 07:56:49;;;;;;;17.85;7.68;;;3.30;97.00;;;;;;4796389;29;92448;-86
2022/12/07 07:59:15;;;;;;;19.33;7.80;;;3.30;96.70;;;;;;4811374;29;91200;-86
2022/12/07 08:01:41;;;;;;;20.48;7.75;;;3.30;96.90;;;;;;4811902;29;91102;-86
2022/12/07 08:04:07;;;;;;;20.42;8.93;;;3.40;97.00;;;;;;4810111;29;93721;-86
2022/12/07 08:06:32;;;;;;;18.55;7.53;;;3.40;96.90;;;;;;4810445;29;93435;-88
2022/12/07 08:08:58;;;;;;;19.30;7.57;;;3.40;96.80;;;;;;4811570;29;91194;-87
2022/12/07 08:11:24;;;;;;;17.33;7.68;;;3.40;97.10;;;;;;4810920;29;91308;-87
2022/12/07 08:13:50;;;;;;;17.60;8.10;;;3.50;96.90;;;;;;4810366;29;92800;-86
2022/12/07 08:16:16;;;;;;;21.23;8.23;;;3.50;97.10;;;;;;4809947;29;92363;-86
2022/12/07 08:18:42;;;;;;;20.98;8.77;;;3.50;97.50;;;;;;4804972;29;91260;-87
2022/12/07 08:21:12;;;;;;;21.30;8.75;;;3.60;97.40;;;;;;4796282;29;90641;-86
2022/12/07 08:23:38;;;;;;;26.27;9.35;;;3.60;97.40;;;;;;4809972;29;92743;-86
2022/12/07 08:26:07;;;;;;;23.02;9.02;;;3.60;97.50;;;;;;4805455;29;91837;-81
2022/12/07 08:28:32;;;;;;;17.73;8.15;;;3.70;97.30;;;;;;4807383;29;92362;-82
2022/12/07 08:31:03;;;;;;;16.35;7.60;;;3.70;97.10;;;;;;4808075;29;91395;-87
2022/12/07 08:33:29;;;;;;;17.77;7.75;;;3.70;96.70;;;;;;4799005;29;92066;-81
2022/12/07 08:35:54;;;;;;;20.90;7.90;;;3.60;96.80;;;;;;4807097;29;92528;-85
2022/12/07 08:38:20;;;;;;;16.38;7.45;;;3.60;96.40;;;;;;4799698;29;91266;-82
2022/12/07 08:40:54;;;;;;;22.20;7.72;;;3.60;96.50;;;;;;4805505;29;91169;-83
2022/12/07 08:43:20;;;;;;;15.82;6.90;;;3.60;96.30;;;;;;4798969;29;92394;-83
2022/12/07 08:45:50;;;;;;;17.50;6.53;;;3.60;96.50;;;;;;4824680;29;91966;-82
2022/12/07 08:48:21;;;;;;;16.02;6.95;;;3.60;96.20;;;;;;4797897;29;91368;-80
2022/12/07 08:50:47;;;;;;;15.07;6.57;;;3.60;96.50;;;;;;4793824;29;91625;-87
2022/12/07 08:53:13;;;;;;;17.10;7.47;;;3.60;96.30;;;;;;4796174;29;93419;-87
2022/12/07 08:55:39;;;;;;;18.25;8.00;;;3.70;96.60;;;;;;4808896;29;93466;-87
2022/12/07 08:58:05;;;;;;;16.42;7.28;;;3.80;96.20;;;;;;4792904;29;91399;-88
2022/12/07 09:00:31;;;;;;;15.43;6.70;;;3.80;96.40;;;;;;4806468;29;91394;-87
2022/12/07 09:02:57;;;;;;;16.52;7.43;;;3.80;96.10;;;;;;4809764;29;92790;-87
2022/12/07 09:05:23;;;;;;;18.63;7.65;;;3.80;95.70;;;;;;4793239;29;95453;-88
2022/12/07 09:07:52;;;;;;;17.50;7.68;;;3.80;95.90;;;;;;4808583;29;91211;-89
2022/12/07 09:10:18;;;;;;;16.20;7.85;;;3.90;96.10;;;;;;4792341;29;90687;-87
2022/12/07 09:12:44;;;;;;;19.40;7.65;;;3.90;95.70;;;;;;4790921;29;95964;-88
2022/12/07 09:15:09;;;;;;;20.52;8.02;;;3.80;96.00;;;;;;4805339;29;92457;-87
2022/12/07 09:17:37;;;;;;;19.25;7.60;;;4.00;96.20;;;;;;4806123;29;92163;-88
2022/12/07 09:20:05;;;;;;;18.00;7.72;;;4.00;95.50;;;;;;4803420;29;91335;-88
2022/12/07 09:22:32;;;;;;;19.20;7.85;;;4.00;95.30;;;;;;4803351;29;92255;-87
2022/12/07 09:24:58;;;;;;;16.98;7.63;;;4.00;95.10;;;;;;4808931;29;92368;-87
2022/12/07 09:27:25;;;;;;;20.15;7.97;;;4.00;95.30;;;;;;4778710;29;91246;-87
2022/12/07 09:29:50;;;;;;;16.85;7.90;;;4.00;95.00;;;;;;4792358;29;91316;-88
2022/12/07 09:32:16;;;;;;;19.73;8.05;;;4.00;95.20;;;;;;4802040;29;92910;-88
2022/12/07 09:34:42;;;;;;;18.20;7.78;;;4.00;95.10;;;;;;4798873;29;91801;-86
2022/12/07 09:37:07;;;;;;;20.35;7.57;;;4.00;95.50;;;;;;4806828;29;91289;-88
2022/12/07 09:39:33;;;;;;;18.35;7.47;;;4.10;95.00;;;;;;4811770;29;91363;-87
2022/12/07 09:42:02;;;;;;;17.48;7.13;;;4.20;94.90;;;;;;4806385;29;93675;-87
2022/12/07 09:44:28;;;;;;;18.20;7.57;;;4.20;94.80;;;;;;4792053;29;96215;-88
2022/12/07 09:46:56;;;;;;;18.17;8.15;;;4.30;94.90;;;;;;4793260;29;91286;-86
2022/12/07 09:49:25;;;;;;;19.77;7.85;;;4.30;94.60;;;;;;4805967;29;91594;-87
2022/12/07 09:52:19;;;;;;;18.35;8.02;;;4.30;94.70;;;;;;4792939;29;95946;-87
2022/12/07 09:54:49;;;;;;;18.08;8.02;;;4.40;94.40;;;;;;4783821;29;95912;-87
2022/12/07 09:57:15;;;;;;;19.50;8.65;;;4.30;94.40;;;;;;4801756;29;91243;-87
2022/12/07 09:59:41;;;;;;;18.70;7.97;;;4.30;94.90;;;;;;4797040;29;90624;-87
2022/12/07 10:02:37;;;;;;;18.02;7.97;;;4.40;95.20;;;;;;4804677;29;95755;-89
2022/12/07 10:05:11;;;;;;;18.42;8.25;;;4.40;94.40;;;;;;4827791;29;92075;-87
2022/12/07 10:07:37;;;;;;;20.58;8.63;;;4.40;94.40;;;;;;4811628;29;92488;-87
2022/12/07 10:10:06;;;;;;;16.60;7.35;;;4.50;94.90;;;;;;4806836;29;91538;-88
2022/12/07 10:12:56;;;;;;;17.50;6.70;;;4.50;94.50;;;;;;4783472;29;96296;-80
2022/12/07 10:15:22;;;;;;;15.32;6.55;;;4.60;93.90;;;;;;4795655;29;91778;-80
2022/12/07 10:17:51;;;;;;;17.10;7.22;;;4.60;93.80;;;;;;4809190;29;91358;-80
2022/12/07 10:20:26;;;;;;;15.77;6.65;;;4.50;93.40;;;;;;4797177;29;91304;-81
2022/12/07 10:22:58;;;;;;;13.88;6.25;;;4.50;93.80;;;;;;4808595;29;92487;-81
2022/12/07 10:25:28;;;;;;;15.95;6.50;;;4.50;94.00;;;;;;4808432;29;92209;-80
2022/12/07 10:28:23;;;;;;;14.80;6.63;;;4.50;93.60;;;;;;4809432;29;91878;-80
2022/12/07 10:30:50;;;;;;;15.85;6.45;;;4.70;94.00;;;;;;4792157;29;91349;-83
2022/12/07 10:33:38;;;;;;;15.15;6.93;;;4.70;93.60;;;;;;4795976;29;93249;-80
2022/12/07 10:36:34;;;;;;;16.95;6.90;;;4.70;93.70;;;;;;4813062;29;93476;-89
2022/12/07 10:39:10;;;;;;;14.65;6.60;;;4.70;93.30;;;;;;4836514;23;91883;-69
2022/12/07 10:41:52;;;;;;;13.15;5.68;;;4.80;93.20;;;;;;4822273;29;91755;-69
2022/12/07 10:44:23;;;;;;;14.05;5.38;;;4.80;92.60;;;;;;4817918;29;92627;-69
2022/12/07 10:47:26;;;;;;;10.80;4.70;;;4.80;92.40;;;;;;4816219;29;92175;-69
2022/12/07 10:50:06;;;;;;;;;;;4.80;92.30;;;;;;4824860;29;91959;-70
2022/12/07 10:52:38;;;;;;;11.13;4.60;;;4.80;91.70;;;;;;4814673;29;90730;-70
2022/12/07 10:55:25;;;;;;;13.77;4.55;;;4.80;92.10;;;;;;4805870;29;92525;-70
2022/12/07 10:58:15;;;;;;;12.65;4.93;;;4.80;91.90;;;;;;4820112;29;92409;-70
2022/12/07 11:01:12;;;;;;;12.73;4.57;;;4.80;91.90;;;;;;4823195;29;92503;-70
2022/12/07 11:03:54;;;;;;;12.52;4.85;;;4.80;91.90;;;;;;4816147;29;91835;-69
2022/12/07 11:06:36;;;;;;;13.38;5.10;;;4.70;91.70;;;;;;4826453;29;92358;-69
2022/12/07 11:09:21;;;;;;;13.40;4.43;;;4.70;92.10;;;;;;4820519;29;94625;-70
2022/12/07 11:11:55;;;;;;;12.43;4.97;;;4.70;91.80;;;;;;4820217;29;91676;-70
2022/12/07 11:14:31;;;;;;;12.95;4.93;;;4.60;91.90;;;;;;4816086;29;91592;-69
2022/12/07 11:17:06;;;;;;;15.40;6.07;;;4.60;92.20;;;;;;4821601;29;92244;-71
2022/12/07 11:20:07;;;;;;;14.48;4.90;;;4.60;92.20;;;;;;4812025;29;91426;-70
2022/12/07 11:22:59;;;;;;;11.55;4.57;;;4.70;92.20;;;;;;4791685;29;91895;-71
2022/12/07 11:26:07;;;;;;;11.63;4.45;;;4.70;91.90;;;;;;4814642;29;92608;-72
2022/12/07 11:28:35;;;;;;;10.13;4.47;;;4.70;92.00;;;;;;4813900;29;92877;-70
2022/12/07 11:31:22;;;;;;;10.80;4.80;;;4.80;91.00;;;;;;4812545;29;92573;-70
2022/12/07 11:34:13;;;;;;;14.13;4.35;;;4.80;91.30;;;;;;4814173;29;91865;-69
2022/12/07 11:36:45;;;;;;;11.95;4.03;;;4.80;91.50;;;;;;4814549;29;92189;-69
2022/12/07 11:39:22;;;;;;;11.50;4.65;;;4.90;91.00;;;;;;4814970;29;92351;-70
2022/12/07 11:41:54;;;;;;;10.68;4.25;;;5.00;91.20;;;;;;4808633;29;93887;-70
2022/12/07 11:44:27;;;;;;;11.27;4.68;;;5.00;90.90;;;;;;4819154;29;91926;-70
2022/12/07 11:47:07;;;;;;;14.20;4.95;;;5.10;91.20;;;;;;4822888;29;91170;-70
2022/12/07 11:49:53;;;;;;;11.57;4.63;;;5.20;90.80;;;;;;4811477;29;93456;-69
2022/12/07 11:52:33;;;;;;;11.35;4.22;;;5.30;90.60;;;;;;4810247;29;91809;-68
2022/12/07 11:55:01;;;;;;;11.77;4.88;;;5.40;90.30;;;;;;4814450;29;93156;-71
2022/12/07 11:57:39;;;;;;;13.38;4.68;;;5.50;89.80;;;;;;4816092;29;91919;-73
2022/12/07 12:00:12;;;;;;;11.95;4.80;;;5.40;90.20;;;;;;4817134;29;91924;-70
2022/12/07 12:03:04;;;;;;;10.45;4.03;;;5.40;90.40;;;;;;4819303;29;93971;-71
2022/12/07 12:05:30;;;;;;;14.43;5.22;;;5.50;89.80;;;;;;4816492;29;91669;-71
2022/12/07 12:08:05;;;;;;;14.30;5.28;;;5.40;89.60;;;;;;4818087;29;91593;-71
2022/12/07 12:10:44;;;;;;;15.55;5.90;;;5.40;89.50;;;;;;4817712;29;93017;-71
2022/12/07 12:13:37;;;;;;;19.05;5.95;;;5.40;90.10;;;;;;4817376;29;92936;-71
2022/12/07 12:16:06;;;;;;;13.93;5.00;;;5.30;90.20;;;;;;4816628;29;91907;-71
2022/12/07 12:19:15;;;;;;;14.93;4.97;;;5.30;90.30;;;;;;4820255;29;91954;-70
2022/12/07 12:21:41;;;;;;;15.82;5.25;;;5.30;90.60;;;;;;4814933;29;93989;-71
2022/12/07 12:24:18;;;;;;;26.10;5.63;;;5.30;90.80;;;;;;4818069;29;92775;-71
2022/12/07 12:27:18;;;;;;;15.50;5.45;;;5.40;90.80;;;;;;4818047;29;91449;-70
2022/12/07 12:29:44;;;;;;;54.30;7.60;;;5.40;90.40;;;;;;4814169;29;91954;-70
2022/12/07 12:32:20;;;;;;;17.83;5.78;;;5.40;90.40;;;;;;4815622;29;93518;-71
2022/12/07 12:35:17;;;;;;;20.40;6.72;;;5.40;90.60;;;;;;4814670;29;92489;-70
2022/12/07 12:37:44;;;;;;;14.75;5.75;;;5.30;90.50;;;;;;4818037;29;91912;-70
2022/12/07 12:40:15;;;;;;;17.63;5.50;;;5.30;90.50;;;;;;4818162;29;90682;-70
2022/12/07 12:42:50;;;;;;;13.52;5.57;;;5.10;90.40;;;;;;4829585;29;93146;-73
2022/12/07 12:45:30;;;;;;;17.15;6.00;;;5.10;90.90;;;;;;4818519;29;92255;-72
2022/12/07 12:48:03;;;;;;;13.95;5.88;;;5.10;91.20;;;;;;4820466;29;93139;-71
2022/12/07 12:50:29;;;;;;;16.92;6.78;;;5.20;91.20;;;;;;4819309;29;91812;-71
2022/12/07 12:52:57;;;;;;;16.88;6.18;;;5.30;91.50;;;;;;4812343;29;92738;-70
2022/12/07 12:55:50;;;;;;;15.65;6.40;;;5.40;91.20;;;;;;4820917;29;92015;-71
2022/12/07 12:58:18;;;;;;;20.27;7.05;;;5.50;91.00;;;;;;4800418;29;91641;-69
2022/12/07 13:00:46;;;;;;;18.75;6.55;;;5.40;91.10;;;;;;4831754;29;92069;-69
2022/12/07 13:03:27;;;;;;;16.48;7.13;;;5.40;91.20;;;;;;4808032;29;92970;-68
2022/12/07 13:06:19;;;;;;;19.75;6.97;;;5.50;91.10;;;;;;4819983;29;91857;-70
2022/12/07 13:08:46;;;;;;;18.45;7.07;;;5.50;91.00;;;;;;4814510;29;92054;-69
2022/12/07 13:11:32;;;;;;;19.25;7.55;;;5.50;91.40;;;;;;4814785;29;91966;-71
2022/12/07 13:14:40;;;;;;;17.98;7.45;;;5.60;91.20;;;;;;4817725;29;92908;-70
2022/12/07 13:17:30;;;;;;;17.85;6.25;;;5.60;91.40;;;;;;4818738;29;94551;-69
2022/12/07 13:19:56;;;;;;;18.65;7.70;;;5.60;91.30;;;;;;4811308;29;92114;-70
2022/12/07 13:22:32;;;;;;;17.10;7.43;;;5.60;91.40;;;;;;4820627;29;92110;-69
2022/12/07 13:25:07;;;;;;;21.02;7.57;;;5.60;91.50;;;;;;4819428;29;91886;-70
2022/12/07 13:27:36;;;;;;;20.10;8.35;;;5.60;91.30;;;;;;4814393;29;91912;-70
2022/12/07 13:30:18;;;;;;;22.30;10.95;;;5.60;91.60;;;;;;4820528;29;92093;-71
2022/12/07 13:32:55;;;;;;;23.75;10.15;;;5.60;91.30;;;;;;4818702;29;91140;-69
2022/12/07 13:35:36;;;;;;;21.63;8.63;;;5.60;91.30;;;;;;4819753;29;92482;-70
2022/12/07 13:38:05;;;;;;;19.67;8.73;;;5.50;91.10;;;;;;4815362;29;92528;-71
2022/12/07 13:40:31;;;;;;;21.90;8.60;;;5.40;91.30;;;;;;4824648;29;92879;-68
2022/12/07 13:43:12;;;;;;;26.05;8.65;;;5.30;91.60;;;;;;4820025;29;92032;-68
2022/12/07 13:45:50;;;;;;;19.42;8.05;;;5.40;91.70;;;;;;4821420;29;93834;-67
2022/12/07 13:48:52;;;;;;;20.40;8.52;;;5.50;91.60;;;;;;4819749;29;92888;-67
2022/12/07 13:51:28;;;;;;;20.42;7.72;;;5.50;91.10;;;;;;4815676;29;91405;-70
2022/12/07 13:53:59;;;;;;;22.60;8.00;;;5.50;91.20;;;;;;4816408;29;91300;-69
2022/12/07 13:56:35;;;;;;;19.55;7.60;;;5.60;91.30;;;;;;4826658;29;92544;-71
2022/12/07 13:59:01;;;;;;;20.30;7.65;;;5.60;90.70;;;;;;4820789;29;91484;-70
2022/12/07 14:01:30;;;;;;;21.02;8.13;;;5.60;91.10;;;;;;4819545;29;91679;-67
2022/12/07 14:03:55;;;;;;;19.30;7.45;;;5.60;91.00;;;;;;4816553;29;91665;-69
2022/12/07 14:06:26;;;;;;;19.15;7.95;;;5.70;90.80;;;;;;4808464;29;92960;-70
2022/12/07 14:09:22;;;;;;;21.23;8.30;;;5.60;91.00;;;;;;4817495;29;93450;-68
2022/12/07 14:11:49;;;;;;;23.70;8.63;;;5.60;91.00;;;;;;4805043;29;92075;-69
2022/12/07 14:14:22;;;;;;;23.35;9.43;;;5.60;91.00;;;;;;4819232;29;91814;-68
2022/12/07 14:17:02;;;;;;;20.60;8.65;;;5.60;91.10;;;;;;4820331;29;91635;-70
2022/12/07 14:19:46;;;;;;;25.50;9.30;;;5.50;91.20;;;;;;4821084;29;92150;-67
2022/12/07 14:22:31;;;;;;;23.75;8.95;;;5.60;91.30;;;;;;4822664;29;93615;-70
2022/12/07 14:25:21;;;;;;;22.90;8.82;;;5.50;91.30;;;;;;4818283;29;90899;-70
2022/12/07 14:27:50;;;;;;;21.27;9.43;;;5.50;91.30;;;;;;4826024;29;92450;-68
2022/12/07 14:30:17;;;;;;;24.35;9.27;;;5.60;91.30;;;;;;4823130;29;92407;-71
2022/12/07 14:32:48;;;;;;;20.92;8.20;;;5.60;91.20;;;;;;4812917;29;93318;-68
2022/12/07 14:35:16;;;;;;;23.05;8.38;;;5.60;91.10;;;;;;4815564;29;91386;-68
2022/12/07 14:37:45;;;;;;;21.52;8.85;;;5.50;91.20;;;;;;4815357;29;92181;-68
2022/12/07 14:40:19;;;;;;;21.38;7.28;;;5.60;91.30;;;;;;4817548;29;92027;-72
2022/12/07 14:42:48;;;;;;;17.15;7.07;;;5.60;91.50;;;;;;4818276;29;92009;-69
2022/12/07 14:45:17;;;;;;;20.33;7.70;;;5.60;90.90;;;;;;4824150;29;91281;-70
2022/12/07 14:47:43;;;;;;;18.75;7.80;;;5.60;90.60;;;;;;4816584;29;92492;-69
2022/12/07 14:50:12;;;;;;;20.50;8.18;;;5.50;90.90;;;;;;4822375;29;92390;-66
2022/12/07 14:52:39;;;;;;;20.02;7.88;;;5.50;90.80;;;;;;4817480;29;92011;-69
2022/12/07 14:55:12;;;;;;;19.00;7.63;;;5.40;91.10;;;;;;4832019;29;91361;-67
2022/12/07 14:57:37;;;;;;;21.85;7.95;;;5.40;91.30;;;;;;4814472;29;92914;-70
2022/12/07 15:00:04;;;;;;;20.48;8.57;;;5.50;91.70;;;;;;4826492;29;93102;-70
2022/12/07 15:02:29;;;;;;;20.35;8.10;;;5.50;91.80;;;;;;4815231;29;92587;-67
2022/12/07 15:04:55;;;;;;;26.02;8.27;;;5.50;92.00;;;;;;4820219;29;91912;-70
2022/12/07 15:07:21;;;;;;;20.25;7.70;;;5.60;91.60;;;;;;4819950;29;92520;-71
2022/12/07 15:09:48;;;;;;;25.92;7.80;;;5.70;91.20;;;;;;4834571;29;91423;-71
2022/12/07 15:12:14;;;;;;;17.50;6.93;;;5.70;91.30;;;;;;4826228;29;91813;-69
2022/12/07 15:14:39;;;;;;;22.05;8.43;;;5.60;91.10;;;;;;4820153;29;90722;-69
2022/12/07 15:17:06;;;;;;;18.17;7.28;;;5.70;91.00;;;;;;4812079;29;92597;-70
2022/12/07 15:19:31;;;;;;;21.42;7.93;;;5.60;90.90;;;;;;4819062;29;93013;-69
2022/12/07 15:21:59;;;;;;;21.23;7.45;;;5.60;90.90;;;;;;4820692;29;92408;-69
2022/12/07 15:24:25;;;;;;;20.42;8.05;;;5.50;91.00;;;;;;4819352;29;91329;-70
2022/12/07 15:26:52;;;;;;;20.23;7.72;;;5.40;91.30;;;;;;4816508;29;91650;-69
2022/12/07 15:29:17;;;;;;;20.00;8.13;;;5.40;91.10;;;;;;4812668;29;93506;-69
2022/12/07 15:31:43;;;;;;;22.02;7.50;;;5.30;92.90;;;;;;4822304;29;91996;-69
2022/12/07 15:34:09;;;;;;;19.45;7.57;;;5.40;91.70;;;;;;4834425;29;91380;-70
2022/12/07 15:36:34;;;;;;;21.55;7.57;;;5.40;91.40;;;;;;4819405;29;92479;-68
2022/12/07 15:39:00;;;;;;;21.00;7.90;;;5.40;91.60;;;;;;4820210;29;92433;-69
2022/12/07 15:41:26;;;;;;;19.77;7.57;;;5.50;91.50;;;;;;4820917;29;91986;-69
2022/12/07 15:46:39;;;;;;;22.38;7.70;;;5.60;91.20;;;;;;4819556;29;92346;-69
2022/12/07 15:49:31;;;;;;;21.40;7.80;;;5.50;91.20;;;;;;4820196;29;93479;-70
2022/12/07 15:51:57;;;;;;;19.92;7.43;;;5.50;91.20;;;;;;4818106;29;91947;-69
2022/12/07 15:54:28;;;;;;;19.38;8.02;;;5.50;91.40;;;;;;4818969;29;91508;-70
2022/12/07 15:56:54;;;;;;;18.17;8.00;;;5.50;91.40;;;;;;4821429;29;93071;-68
2022/12/07 15:59:20;;;;;;;23.27;7.97;;;5.60;91.40;;;;;;4823682;29;91977;-69
2022/12/07 16:01:46;;;;;;;21.88;8.07;;;5.60;91.40;;;;;;4825699;29;92015;-69
2022/12/07 16:04:11;;;;;;;21.33;8.30;;;5.60;91.60;;;;;;4820897;29;91472;-69
2022/12/07 16:06:37;;;;;;;21.45;8.30;;;5.60;91.60;;;;;;4820063;29;91670;-70
2022/12/07 16:09:04;;;;;;;24.40;9.15;;;5.60;91.60;;;;;;4823549;29;92171;-69
2022/12/07 16:11:29;;;;;;;22.75;9.20;;;5.60;91.80;;;;;;4820063;29;93107;-68
2022/12/07 16:13:55;;;;;;;20.17;9.38;;;5.60;91.90;;;;;;4822244;29;91321;-70
2022/12/07 16:16:24;;;;;;;24.45;9.75;;;5.60;92.00;;;;;;4818304;29;91852;-70
2022/12/07 16:18:50;;;;;;;28.88;9.98;;;5.60;91.90;;;;;;4820538;29;92120;-69
2022/12/07 16:21:17;;;;;;;22.35;8.27;;;5.60;91.90;;;;;;4822793;29;91701;-68
2022/12/07 16:23:43;;;;;;;22.88;9.07;;;5.60;91.90;;;;;;4823422;29;92010;-69
2022/12/07 16:26:12;;;;;;;24.58;8.90;;;5.60;91.90;;;;;;4819438;29;92661;-70
2022/12/07 16:28:38;;;;;;;21.35;8.57;;;5.60;91.90;;;;;;4820306;29;92183;-68
2022/12/07 16:31:05;;;;;;;32.83;10.90;;;5.50;92.30;;;;;;4820530;29;91613;-68
2022/12/07 16:33:30;;;;;;;37.85;14.18;;;5.50;92.30;;;;;;4823201;29;92003;-70
2022/12/07 16:35:57;;;;;;;23.15;8.85;;;5.50;92.50;;;;;;4822988;29;92933;-70
2022/12/07 16:38:23;;;;;;;24.30;9.43;;;5.40;92.30;;;;;;4822534;29;93082;-68
2022/12/07 16:40:49;;;;;;;23.70;10.95;;;5.50;92.40;;;;;;4824381;29;91752;-68
2022/12/07 16:43:14;;;;;;;23.75;8.57;;;5.60;92.40;;;;;;4824676;29;91352;-70
2022/12/07 16:45:40;;;;;;;22.73;9.07;;;5.60;92.40;;;;;;4823808;29;92381;-71
2022/12/07 16:48:06;;;;;;;22.30;8.77;;;5.50;92.40;;;;;;4824125;29;92084;-69
2022/12/07 16:50:31;;;;;;;19.33;7.97;;;5.60;92.40;;;;;;4812703;29;91346;-70
2022/12/07 16:52:57;;;;;;;17.70;7.88;;;5.60;92.20;;;;;;4823152;29;92065;-70
2022/12/07 16:55:22;;;;;;;22.50;7.55;;;5.60;92.20;;;;;;4823878;29;91727;-69
2022/12/07 16:57:48;;;;;;;18.63;7.07;;;5.60;92.00;;;;;;4832425;29;92190;-69